createdAt,value
2023-11-13T00:02:20.365Z,94796.13
2023-11-13T00:04:48.165Z,94795.70
2023-11-13T00:07:16.261Z,94800.73
2023-11-13T00:09:44.163Z,94804.75
2023-11-13T00:12:12.063Z,94805.70
2023-11-13T00:14:39.935Z,94805.15
2023-11-13T00:17:08.126Z,94802.64
2023-11-13T00:19:37.139Z,94808.86
2023-11-13T00:22:05.361Z,94811.68
2023-11-13T00:24:33.133Z,94816.40
2023-11-13T00:27:00.881Z,94821.27
2023-11-13T00:29:28.552Z,94818.33
2023-11-13T00:31:56.280Z,94821.66
2023-11-13T00:34:24.222Z,94824.74
2023-11-13T00:36:52.640Z,94827.09
2023-11-13T00:39:20.418Z,94831.45
2023-11-13T00:41:48.170Z,94833.27
2023-11-13T00:44:16.196Z,94843.30
2023-11-13T00:46:44.194Z,94843.07
2023-11-13T00:49:12.082Z,94843.42
2023-11-13T00:51:39.805Z,94852.59
2023-11-13T00:54:07.816Z,94857.87
2023-11-13T00:56:35.474Z,94854.53
2023-11-13T00:59:04.290Z,94860.23
2023-11-13T01:01:32.299Z,94861.58
2023-11-13T01:04:00.262Z,94854.80
2023-11-13T01:06:28.002Z,94858.19
2023-11-13T01:08:56.382Z,94856.05
2023-11-13T01:11:24.221Z,94855.17
2023-11-13T01:13:52.062Z,94859.69
2023-11-13T01:16:22.798Z,94868.06
2023-11-13T01:18:54.795Z,94870.67
2023-11-13T01:21:23.383Z,94871.48
2023-11-13T01:23:51.328Z,94867.96
2023-11-13T01:26:18.972Z,94868.09
2023-11-13T01:28:46.765Z,94861.81
2023-11-13T01:31:17.945Z,94855.51
2023-11-13T01:33:46.050Z,94851.83
2023-11-13T01:36:13.880Z,94844.58
2023-11-13T01:38:42.488Z,94839.42
2023-11-13T01:41:10.254Z,94839.83
2023-11-13T01:43:38.150Z,94833.55
2023-11-13T01:46:07.592Z,94830.55
2023-11-13T01:48:36.095Z,94836.33
2023-11-13T01:51:04.291Z,94843.70
2023-11-13T01:53:32.393Z,94850.04
2023-11-13T01:56:00.685Z,94852.13
2023-11-13T01:58:28.937Z,94848.67
2023-11-13T02:00:56.799Z,94848.79
2023-11-13T02:03:26.259Z,94849.53
2023-11-13T02:05:54.447Z,94846.48
2023-11-13T02:08:22.659Z,94843.84
2023-11-13T02:10:50.713Z,94842.73
2023-11-13T02:13:19.870Z,94840.29
2023-11-13T02:15:47.734Z,94835.27
2023-11-13T02:18:15.834Z,94832.39
2023-11-13T02:20:43.403Z,94836.11
2023-11-13T02:23:16.121Z,94838.38
2023-11-13T02:25:52.708Z,94836.84
2023-11-13T02:28:21.112Z,94832.88
2023-11-13T02:30:49.394Z,94822.63
2023-11-13T02:33:17.763Z,94814.64
2023-11-13T02:35:45.534Z,94811.79
2023-11-13T02:38:13.498Z,94812.62
2023-11-13T02:40:41.287Z,94816.23
2023-11-13T02:43:09.588Z,94818.02
2023-11-13T02:45:38.019Z,94812.48
2023-11-13T02:48:06.271Z,94810.58
2023-11-13T02:50:34.784Z,94812.39
2023-11-13T02:53:02.804Z,94817.52
2023-11-13T02:55:30.514Z,94822.20
2023-11-13T02:57:58.901Z,94835.41
2023-11-13T03:00:26.552Z,94830.98
2023-11-13T03:02:54.312Z,94831.98
2023-11-13T03:05:22.415Z,94831.67
2023-11-13T03:07:50.184Z,94839.19
2023-11-13T03:10:18.235Z,94840.69
2023-11-13T03:12:45.930Z,94835.45
2023-11-13T03:15:13.596Z,94832.42
2023-11-13T03:17:41.457Z,94828.58
2023-11-13T03:20:10.372Z,94823.63
2023-11-13T03:22:39.107Z,94816.64
2023-11-13T03:25:09.766Z,94817.69
2023-11-13T03:27:37.628Z,94817.02
2023-11-13T03:30:10.282Z,94825.60
2023-11-13T03:32:38.900Z,94826.74
2023-11-13T03:35:07.635Z,94819.16
2023-11-13T03:37:35.813Z,94819.83
2023-11-13T03:40:04.103Z,94818.91
2023-11-13T03:42:31.905Z,94814.67
2023-11-13T03:45:00.060Z,94804.38
2023-11-13T03:47:30.176Z,94796.45
2023-11-13T03:49:58.209Z,94799.16
2023-11-13T03:52:26.121Z,94802.10
2023-11-13T03:54:54.309Z,94814.14
2023-11-13T03:57:22.402Z,94813.55
2023-11-13T03:59:50.438Z,94817.47
2023-11-13T04:02:18.277Z,94828.39
2023-11-13T04:04:46.535Z,94825.83
2023-11-13T04:07:14.317Z,94817.13
2023-11-13T04:09:42.536Z,94809.72
2023-11-13T04:12:11.554Z,94810.44
2023-11-13T04:14:39.633Z,94819.02
2023-11-13T04:17:09.209Z,94821.53
2023-11-13T04:19:36.913Z,94804.36
2023-11-13T04:22:07.968Z,94808.50
2023-11-13T04:24:36.135Z,94807.00
2023-11-13T04:27:04.059Z,94802.25
2023-11-13T04:29:32.455Z,94801.98
2023-11-13T04:32:00.141Z,94810.85
2023-11-13T04:34:28.130Z,94799.73
2023-11-13T04:36:57.312Z,94809.58
2023-11-13T04:39:25.213Z,94813.35
2023-11-13T04:41:52.899Z,94817.63
2023-11-13T04:44:21.022Z,94818.32
2023-11-13T04:46:49.192Z,94820.67
2023-11-13T04:49:17.641Z,94824.86
2023-11-13T04:51:45.457Z,94829.98
2023-11-13T04:54:13.985Z,94827.21
2023-11-13T04:56:42.859Z,94836.27
2023-11-13T04:59:10.796Z,94845.73
2023-11-13T05:01:40.757Z,94846.61
2023-11-13T05:04:09.032Z,94851.14
2023-11-13T05:06:37.122Z,94850.73
2023-11-13T05:09:05.075Z,94845.98
2023-11-13T05:11:32.854Z,94855.23
2023-11-13T05:14:00.642Z,94853.30
2023-11-13T05:16:29.842Z,94846.59
2023-11-13T05:18:57.997Z,94851.64
2023-11-13T05:21:26.233Z,94848.73
2023-11-13T05:23:54.001Z,94852.68
2023-11-13T05:26:21.945Z,94850.23
2023-11-13T05:28:50.025Z,94842.90
2023-11-13T05:31:18.192Z,94828.62
2023-11-13T05:33:46.270Z,94829.86
2023-11-13T05:36:14.242Z,94840.58
2023-11-13T05:38:43.398Z,94844.09
2023-11-13T05:41:11.569Z,94839.33
2023-11-13T05:43:39.417Z,94847.24
2023-11-13T05:46:08.569Z,94851.34
2023-11-13T05:48:36.604Z,94852.52
2023-11-13T05:51:05.133Z,94846.27
2023-11-13T05:53:33.712Z,94836.55
2023-11-13T05:56:01.402Z,94841.15
2023-11-13T05:58:29.504Z,94842.09
2023-11-13T06:00:58.870Z,94842.91
2023-11-13T06:03:27.178Z,94856.06
2023-11-13T06:05:55.210Z,94855.80
2023-11-13T06:08:23.162Z,94856.05
2023-11-13T06:10:51.026Z,94862.23
2023-11-13T06:13:18.983Z,94855.23
2023-11-13T06:15:47.090Z,94842.65
2023-11-13T06:18:14.775Z,94841.35
2023-11-13T06:20:44.205Z,94845.86
2023-11-13T06:23:12.131Z,94841.83
2023-11-13T06:25:39.865Z,94842.70
2023-11-13T06:28:08.023Z,94855.41
2023-11-13T06:30:35.920Z,94850.45
2023-11-13T06:33:04.418Z,94852.13
2023-11-13T06:35:33.584Z,94854.01
2023-11-13T06:38:02.055Z,94857.06
2023-11-13T06:40:30.042Z,94856.24
2023-11-13T06:42:58.273Z,94853.88
2023-11-13T06:45:26.054Z,94849.04
2023-11-13T06:47:54.112Z,94844.58
2023-11-13T06:50:21.945Z,94844.06
2023-11-13T06:52:52.527Z,94843.73
2023-11-13T06:55:20.760Z,94845.92
2023-11-13T06:57:49.042Z,94848.84
2023-11-13T07:00:18.020Z,94840.40
2023-11-13T07:02:49.141Z,94827.67
2023-11-13T07:05:17.117Z,94830.33
2023-11-13T07:07:44.980Z,94836.14
2023-11-13T07:10:14.223Z,94835.44
2023-11-13T07:12:42.761Z,94833.63
2023-11-13T07:15:13.167Z,94837.05
2023-11-13T07:17:41.198Z,94843.21
2023-11-13T07:20:14.700Z,94848.78
2023-11-13T07:22:42.522Z,94856.07
2023-11-13T07:25:10.474Z,94849.46
2023-11-13T07:27:38.262Z,94836.70
2023-11-13T07:30:07.109Z,94847.19
2023-11-13T07:32:35.496Z,94853.62
2023-11-13T07:35:04.476Z,94850.94
2023-11-13T07:37:34.820Z,94843.70
2023-11-13T07:40:02.800Z,94840.27
2023-11-13T07:42:30.829Z,94838.89
2023-11-13T07:45:00.210Z,94837.69
2023-11-13T07:47:29.174Z,94835.42
2023-11-13T07:49:59.351Z,94824.94
2023-11-13T07:52:28.282Z,94823.60
2023-11-13T07:54:57.260Z,94821.52
2023-11-13T07:57:25.032Z,94822.14
2023-11-13T07:59:52.807Z,94824.33
2023-11-13T08:02:21.514Z,94826.41
2023-11-13T08:04:49.815Z,94829.90
2023-11-13T08:07:25.332Z,94830.83
2023-11-13T08:09:53.998Z,94825.25
2023-11-13T08:12:22.058Z,94822.33
2023-11-13T08:14:49.769Z,94815.59
2023-11-13T08:17:18.684Z,94812.92
2023-11-13T08:19:47.400Z,94819.03
2023-11-13T08:22:15.496Z,94815.55
2023-11-13T08:24:43.511Z,94815.91
2023-11-13T08:27:11.481Z,94823.17
2023-11-13T08:29:39.152Z,94822.22
2023-11-13T08:32:07.512Z,94822.73
2023-11-13T08:34:35.313Z,94823.16
2023-11-13T08:37:24.011Z,94827.14
2023-11-13T08:39:51.724Z,94830.33
2023-11-13T08:42:19.442Z,94833.08
2023-11-13T08:44:47.294Z,94835.40
2023-11-13T08:47:16.641Z,94831.63
2023-11-13T08:49:44.552Z,94835.39
2023-11-13T08:52:12.713Z,94839.17
2023-11-13T08:54:40.845Z,94840.86
2023-11-13T08:57:08.609Z,94840.21
2023-11-13T08:59:36.678Z,94840.06
2023-11-13T09:02:08.024Z,94832.83
2023-11-13T09:04:36.234Z,94837.17
2023-11-13T09:07:10.814Z,94829.68
2023-11-13T09:09:39.904Z,94835.05
2023-11-13T09:12:08.344Z,94823.29
2023-11-13T09:14:36.562Z,94827.60
2023-11-13T09:17:12.512Z,94825.73
2023-11-13T09:19:43.308Z,94825.85
2023-11-13T09:22:11.819Z,94825.81
2023-11-13T09:24:41.172Z,94826.78
2023-11-13T09:27:12.996Z,94829.41
2023-11-13T09:29:44.943Z,94825.65
2023-11-13T09:32:12.915Z,94831.27
2023-11-13T09:34:45.122Z,94828.48
2023-11-13T09:37:13.207Z,94827.45
2023-11-13T09:39:43.745Z,94825.02
2023-11-13T09:42:17.700Z,94826.55
2023-11-13T09:44:56.320Z,94822.09
2023-11-13T09:47:30.569Z,94825.05
2023-11-13T09:50:16.592Z,94820.59
2023-11-13T09:52:51.670Z,94819.77
2023-11-13T09:55:21.834Z,94814.29
2023-11-13T09:58:00.500Z,94816.86
2023-11-13T10:00:33.718Z,94814.27
2023-11-13T10:03:01.918Z,94814.10
2023-11-13T10:05:31.973Z,94810.86
2023-11-13T10:07:59.820Z,94809.59
2023-11-13T10:10:48.924Z,94809.71
2023-11-13T10:13:23.188Z,94802.26
2023-11-13T10:15:51.229Z,94798.69
2023-11-13T10:18:27.430Z,94798.35
2023-11-13T10:21:16.616Z,94793.80
2023-11-13T10:23:44.592Z,94791.15
2023-11-13T10:26:16.077Z,94791.85
2023-11-13T10:28:43.908Z,94788.65
2023-11-13T10:31:14.759Z,94783.26
2023-11-13T10:34:00.687Z,94778.45
2023-11-13T10:36:33.459Z,94770.02
2023-11-13T10:39:01.937Z,94779.48
2023-11-13T10:41:31.392Z,94777.95
2023-11-13T10:43:59.160Z,94773.86
2023-11-13T10:46:32.033Z,94776.56
2023-11-13T10:49:01.308Z,94774.60
2023-11-13T10:51:31.899Z,94771.23
2023-11-13T10:54:06.828Z,94765.88
2023-11-13T10:56:36.073Z,94765.84
2023-11-13T10:59:04.581Z,94762.30
2023-11-13T11:01:33.628Z,94755.74
2023-11-13T11:04:06.892Z,94756.08
2023-11-13T11:06:39.155Z,94754.02
2023-11-13T11:09:09.234Z,94746.46
2023-11-13T11:11:38.065Z,94747.60
2023-11-13T11:14:14.304Z,94743.16
2023-11-13T11:16:44.206Z,94739.73
2023-11-13T11:19:33.280Z,94742.72
2023-11-13T11:22:34.756Z,94734.75
2023-11-13T11:25:23.661Z,94738.26
2023-11-13T11:27:52.008Z,94735.82
2023-11-13T11:30:19.908Z,94734.36
2023-11-13T11:33:01.846Z,94741.40
2023-11-13T11:35:39.176Z,94741.73
2023-11-13T11:38:27.969Z,94739.84
2023-11-13T11:40:59.728Z,94739.98
2023-11-13T11:43:34.226Z,94734.91
2023-11-13T11:46:07.599Z,94728.11
2023-11-13T11:48:39.461Z,94722.45
2023-11-13T11:51:21.368Z,94719.28
2023-11-13T11:54:01.076Z,94714.24
2023-11-13T11:56:29.519Z,94708.48
2023-11-13T11:58:57.616Z,94705.55
2023-11-13T12:01:27.485Z,94703.81
2023-11-13T12:03:55.301Z,94698.95
2023-11-13T12:06:23.335Z,94698.63
2023-11-13T12:08:52.583Z,94701.78
2023-11-13T12:11:21.280Z,94693.79
2023-11-13T12:13:49.270Z,94686.66
2023-11-13T12:16:17.200Z,94687.08
2023-11-13T12:18:45.322Z,94683.38
2023-11-13T12:21:13.393Z,94685.33
2023-11-13T12:23:41.215Z,94677.76
2023-11-13T12:26:14.289Z,94674.73
2023-11-13T12:28:44.442Z,94674.16
2023-11-13T12:31:20.907Z,94666.77
2023-11-13T12:33:49.067Z,94662.54
2023-11-13T12:36:18.400Z,94660.96
2023-11-13T12:38:48.120Z,94664.63
2023-11-13T12:41:16.266Z,94668.92
2023-11-13T12:43:44.356Z,94667.36
2023-11-13T12:46:13.528Z,94669.51
2023-11-13T12:48:42.774Z,94665.38
2023-11-13T12:51:11.793Z,94664.44
2023-11-13T12:53:47.403Z,94662.70
2023-11-13T12:56:15.297Z,94656.06
2023-11-13T12:58:44.488Z,94654.87
2023-11-13T13:01:16.796Z,94652.14
2023-11-13T13:03:46.546Z,94654.52
2023-11-13T13:06:14.825Z,94654.02
2023-11-13T13:08:43.584Z,94650.54
2023-11-13T13:11:11.887Z,94648.71
2023-11-13T13:13:45.640Z,94646.98
2023-11-13T13:16:20.504Z,94644.59
2023-11-13T13:18:50.097Z,94641.84
2023-11-13T13:21:17.870Z,94637.04
2023-11-13T13:23:45.826Z,94637.16
2023-11-13T13:26:14.041Z,94636.10
2023-11-13T13:28:42.056Z,94628.25
2023-11-13T13:31:12.724Z,94622.96
2023-11-13T13:33:41.838Z,94621.34
2023-11-13T13:36:10.818Z,94617.23
2023-11-13T13:38:38.767Z,94614.13
2023-11-13T13:41:06.821Z,94610.55
2023-11-13T13:43:34.524Z,94606.02
2023-11-13T13:46:04.161Z,94606.41
2023-11-13T13:48:33.242Z,94608.81
2023-11-13T13:51:02.174Z,94604.56
2023-11-13T13:53:33.703Z,94604.64
2023-11-13T13:56:02.426Z,94601.08
2023-11-13T13:58:30.217Z,94603.95
2023-11-13T14:00:58.167Z,94604.00
2023-11-13T14:03:26.032Z,94604.59
2023-11-13T14:05:54.187Z,94601.60
2023-11-13T14:08:22.317Z,94601.88
2023-11-13T14:10:52.788Z,94600.64
2023-11-13T14:13:24.120Z,94596.34
2023-11-13T14:18:26.192Z,94587.92
2023-11-13T14:20:57.628Z,94588.11
2023-11-13T14:23:27.334Z,94583.86
2023-11-13T14:25:55.819Z,94575.34
2023-11-13T14:28:24.273Z,94570.63
2023-11-13T14:30:52.528Z,94569.23
2023-11-13T14:33:23.748Z,94571.61
2023-11-13T14:35:52.498Z,94566.23
2023-11-13T14:38:20.635Z,94561.63
2023-11-13T14:40:48.397Z,94564.45
2023-11-13T14:43:16.304Z,94567.39
2023-11-13T14:45:45.769Z,94565.22
2023-11-13T14:48:14.713Z,94563.00
2023-11-13T14:50:43.616Z,94562.29
2023-11-13T14:53:11.461Z,94567.14
2023-11-13T14:55:39.943Z,94565.91
2023-11-13T14:58:08.035Z,94567.07
2023-11-13T15:00:35.884Z,94566.32
2023-11-13T15:03:03.718Z,94564.50
2023-11-13T15:05:31.882Z,94562.76
2023-11-13T15:07:59.642Z,94551.54
2023-11-13T15:10:28.700Z,94549.27
2023-11-13T15:12:56.642Z,94549.09
2023-11-13T15:15:25.459Z,94544.32
2023-11-13T15:17:53.422Z,94542.73
2023-11-13T15:20:22.258Z,94538.16
2023-11-13T15:23:08.805Z,94529.64
2023-11-13T15:25:42.482Z,94526.69
2023-11-13T15:28:11.537Z,94527.82
2023-11-13T15:30:40.078Z,94522.05
2023-11-13T15:33:09.670Z,94524.85
2023-11-13T15:35:38.929Z,94524.58
2023-11-13T15:38:06.701Z,94522.83
2023-11-13T15:40:34.889Z,94520.81
2023-11-13T15:43:02.705Z,94518.65
2023-11-13T15:45:32.222Z,94516.45
2023-11-13T15:48:00.926Z,94513.59
2023-11-13T15:50:30.428Z,94504.34
2023-11-13T15:52:58.294Z,94497.28
2023-11-13T15:55:26.175Z,94497.02
2023-11-13T15:57:54.018Z,94497.67
2023-11-13T16:00:24.113Z,94489.98
2023-11-13T16:02:51.855Z,94486.02
2023-11-13T16:05:20.680Z,94484.34
2023-11-13T16:07:49.324Z,94483.52
2023-11-13T16:10:17.510Z,94480.73
2023-11-13T16:12:53.576Z,94481.27
2023-11-13T16:15:24.161Z,94474.83
2023-11-13T16:17:52.648Z,94472.20
2023-11-13T16:20:20.809Z,94470.92
2023-11-13T16:22:51.128Z,94475.94
2023-11-13T16:25:19.051Z,94472.35
2023-11-13T16:27:46.773Z,94477.02
2023-11-13T16:30:14.901Z,94480.68
2023-11-13T16:32:43.198Z,94477.20
2023-11-13T16:35:13.904Z,94476.77
2023-11-13T16:37:41.929Z,94477.36
2023-11-13T16:40:10.836Z,94481.79
2023-11-13T16:42:40.456Z,94476.17
2023-11-13T16:45:13.920Z,94474.55
2023-11-13T16:47:44.118Z,94474.33
2023-11-13T16:50:12.760Z,94476.36
2023-11-13T16:52:40.725Z,94474.27
2023-11-13T16:55:09.201Z,94471.78
2023-11-13T16:57:38.276Z,94468.31
2023-11-13T17:00:10.201Z,94464.39
2023-11-13T17:02:43.857Z,94458.25
2023-11-13T17:05:12.672Z,94454.27
2023-11-13T17:07:40.300Z,94454.42
2023-11-13T17:10:10.786Z,94454.08
2023-11-13T17:12:39.564Z,94455.13
2023-11-13T17:15:09.560Z,94452.21
2023-11-13T17:17:37.552Z,94458.30
2023-11-13T17:20:09.334Z,94453.73
2023-11-13T17:22:40.999Z,94446.83
2023-11-13T17:25:09.796Z,94443.60
2023-11-13T17:27:38.746Z,94448.85
2023-11-13T17:30:08.278Z,94448.65
2023-11-13T17:32:37.306Z,94453.79
2023-11-13T17:35:06.033Z,94454.11
2023-11-13T17:37:33.973Z,94451.46
2023-11-13T17:40:01.799Z,94441.90
2023-11-13T17:42:31.553Z,94423.59
2023-11-13T17:44:59.519Z,94416.58
2023-11-13T17:47:28.212Z,94407.41
2023-11-13T17:49:57.299Z,94397.33
2023-11-13T17:52:25.049Z,94396.04
2023-11-13T17:54:52.922Z,94397.96
2023-11-13T17:57:20.720Z,94390.06
2023-11-13T17:59:50.538Z,94383.89
2023-11-13T18:02:20.839Z,94381.23
2023-11-13T18:04:49.622Z,94384.48
2023-11-13T18:07:18.751Z,94389.30
2023-11-13T18:09:48.180Z,94387.53
2023-11-13T18:12:15.924Z,94386.50
2023-11-13T18:14:44.188Z,94378.61
2023-11-13T18:17:12.565Z,94376.86
2023-11-13T18:19:40.584Z,94373.45
2023-11-13T18:22:08.397Z,94363.63
2023-11-13T18:24:38.215Z,94356.98
2023-11-13T18:27:07.124Z,94349.55
2023-11-13T18:29:35.923Z,94346.95
2023-11-13T18:32:06.707Z,94344.34
2023-11-13T18:34:35.705Z,94341.06
2023-11-13T18:37:05.085Z,94344.88
2023-11-13T18:39:34.283Z,94344.00
2023-11-13T18:42:03.773Z,94344.52
2023-11-13T18:44:31.593Z,94342.31
2023-11-13T18:46:59.441Z,94343.15
2023-11-13T18:49:27.251Z,94341.25
2023-11-13T18:51:55.600Z,94340.30
2023-11-13T18:54:23.457Z,94338.95
2023-11-13T18:56:51.441Z,94338.48
2023-11-13T18:59:20.202Z,94336.79
2023-11-13T19:01:48.070Z,94337.50
2023-11-13T19:04:16.134Z,94339.70
2023-11-13T19:06:45.582Z,94344.38
2023-11-13T19:09:18.033Z,94344.02
2023-11-13T19:11:47.474Z,94344.59
2023-11-13T19:14:15.273Z,94340.73
2023-11-13T19:16:43.868Z,94328.86
2023-11-13T19:19:13.314Z,94331.45
2023-11-13T19:21:41.041Z,94328.14
2023-11-13T19:24:10.054Z,94326.77
2023-11-13T19:26:38.534Z,94326.50
2023-11-13T19:29:06.255Z,94319.42
2023-11-13T19:31:34.579Z,94317.46
2023-11-13T19:34:02.392Z,94318.44
2023-11-13T19:36:30.108Z,94315.82
2023-11-13T19:38:58.696Z,94312.40
2023-11-13T19:41:27.353Z,94313.77
2023-11-13T19:43:55.315Z,94315.23
2023-11-13T19:46:23.625Z,94317.13
2023-11-13T19:48:53.644Z,94318.60
2023-11-13T19:51:22.744Z,94313.02
2023-11-13T19:53:50.887Z,94311.73
2023-11-13T19:56:18.943Z,94308.55
2023-11-13T19:58:46.728Z,94315.59
2023-11-13T20:01:14.854Z,94307.23
2023-11-13T20:03:43.185Z,94300.14
2023-11-13T20:06:10.937Z,94302.21
2023-11-13T20:08:39.259Z,94301.67
2023-11-13T20:11:08.139Z,94298.05
2023-11-13T20:13:37.204Z,94300.71
2023-11-13T20:16:06.349Z,94304.89
2023-11-13T20:18:37.236Z,94300.92
2023-11-13T20:21:06.221Z,94306.76
2023-11-13T20:23:35.883Z,94309.98
2023-11-13T20:26:06.931Z,94303.77
2023-11-13T20:28:36.584Z,94299.31
2023-11-13T20:31:04.845Z,94300.59
2023-11-13T20:33:32.945Z,94302.15
2023-11-13T20:36:01.846Z,94284.90
2023-11-13T20:38:30.511Z,94284.48
2023-11-13T20:40:58.293Z,94282.44
2023-11-13T20:43:26.089Z,94270.91
2023-11-13T20:45:54.175Z,94267.63
2023-11-13T20:48:22.515Z,94271.83
2023-11-13T20:50:50.415Z,94280.59
2023-11-13T20:53:20.734Z,94285.59
2023-11-13T20:55:49.004Z,94286.18
2023-11-13T20:58:16.659Z,94280.95
2023-11-13T21:00:44.564Z,94273.27
2023-11-13T21:03:12.847Z,94266.98
2023-11-13T21:05:41.757Z,94275.23
2023-11-13T21:08:12.052Z,94273.89
2023-11-13T21:10:40.028Z,94260.46
2023-11-13T21:13:08.052Z,94265.30
2023-11-13T21:15:36.012Z,94255.60
2023-11-13T21:18:04.342Z,94250.84
2023-11-13T21:20:32.593Z,94239.77
2023-11-13T21:23:01.076Z,94246.89
2023-11-13T21:25:29.305Z,94246.86
2023-11-13T21:27:57.289Z,94248.02
2023-11-13T21:30:25.986Z,94238.57
2023-11-13T21:32:53.874Z,94235.05
2023-11-13T21:35:21.810Z,94230.29
2023-11-13T21:37:50.486Z,94230.11
2023-11-13T21:40:20.099Z,94230.47
2023-11-13T21:42:48.679Z,94225.02
2023-11-13T21:45:18.160Z,94222.73
2023-11-13T21:47:46.990Z,94220.88
2023-11-13T21:50:17.020Z,94221.80
2023-11-13T21:52:45.045Z,94214.42
2023-11-13T21:55:13.415Z,94210.89
2023-11-13T21:57:41.848Z,94197.92
2023-11-13T22:00:11.837Z,94191.20
2023-11-13T22:02:41.143Z,94192.94
2023-11-13T22:05:09.803Z,94193.97
2023-11-13T22:07:40.761Z,94200.35
2023-11-13T22:10:09.725Z,94194.29
2023-11-13T22:12:37.962Z,94195.38
2023-11-13T22:15:10.954Z,94207.61
2023-11-13T22:17:39.203Z,94204.80
2023-11-13T22:20:08.981Z,94199.14
2023-11-13T22:22:37.290Z,94199.88
2023-11-13T22:25:05.264Z,94196.82
2023-11-13T22:27:33.124Z,94192.64
2023-11-13T22:30:01.095Z,94193.83
2023-11-13T22:32:29.303Z,94195.31
2023-11-13T22:34:57.181Z,94189.39
2023-11-13T22:37:25.213Z,94193.98
2023-11-13T22:39:52.867Z,94192.64
2023-11-13T22:42:21.833Z,94194.90
2023-11-13T22:44:50.762Z,94192.02
2023-11-13T22:47:18.500Z,94188.13
2023-11-13T22:49:47.228Z,94184.17
2023-11-13T22:52:15.890Z,94180.31
2023-11-13T22:54:43.649Z,94184.89
2023-11-13T22:57:11.889Z,94183.60
2023-11-13T22:59:39.806Z,94171.55
2023-11-13T23:02:07.622Z,94167.17
2023-11-13T23:04:36.323Z,94167.80
2023-11-13T23:07:05.412Z,94160.66
2023-11-13T23:09:34.439Z,94150.98
2023-11-13T23:12:02.590Z,94143.25
2023-11-13T23:14:39.912Z,94147.46
2023-11-13T23:17:07.776Z,94153.71
2023-11-13T23:19:36.424Z,94151.80
2023-11-13T23:22:05.037Z,94149.44
2023-11-13T23:24:33.258Z,94148.11
2023-11-13T23:27:01.663Z,94147.81
2023-11-13T23:29:29.652Z,94153.77
2023-11-13T23:31:57.733Z,94159.13
2023-11-13T23:34:25.690Z,94159.01
2023-11-13T23:36:53.735Z,94156.05
2023-11-13T23:39:21.531Z,94154.40
2023-11-13T23:41:49.397Z,94148.63
2023-11-13T23:44:17.142Z,94154.89
2023-11-13T23:46:48.842Z,94153.75
2023-11-13T23:49:16.694Z,94160.07
2023-11-13T23:51:44.345Z,94159.57
2023-11-13T23:54:12.197Z,94157.60
2023-11-13T23:56:39.949Z,94154.13
2023-11-13T23:59:08.150Z,94154.08
